Sierra Lara — C6DI3 — position and weather

sailwx.info

Track history (hours):
 
Tides and Currents Weather Stations Pressure Air Temp Water Temp Dewpoint Dewpoint Depression Visibility Wind Speed Wind Dir Waves Ship Positions

Sierra Lara

Last reported at 2018-Apr-24 17:40 UTC. Time now 2018-Apr-26 11:19 UTC.
Position N 27°39' W 015°18'.

; draft 5.2 m.

Type: Cargo ship. MMSI: 311000682.

Date/timePositionNaut miles runAvg speedWind from/ knotsBaromVisibWave heightAir tempDewpointWater temp
2018-Apr-24 17:40N 27°39' W 015°18'213.3
2018-Apr-24 17:30N 27°41' W 015°17'713.0
2018-Apr-24 17:00N 27°48' W 015°15'613.2
2018-Apr-24 16:30N 27°54' W 015°15'612.3
2018-Apr-24 16:00N 28°00' W 015°17'612.8
2018-Apr-24 15:30N 28°05' W 015°21'5 9.0
2018-Apr-24 15:00N 28°08' W 015°25'1 0.5
2018-Apr-24 13:43N 28°09' W 015°25'0 0.0
2018-Apr-24 13:28N 28°09' W 015°25'0 0.0
2018-Apr-24 12:46N 28°09' W 015°25'0 0.0
2018-Apr-24 11:34N 28°09' W 015°25'0 0.2
2018-Apr-24 11:31N 28°09' W 015°25'0 0.0
2018-Apr-24 10:46N 28°09' W 015°25'0 0.0
2018-Apr-24 10:27N 28°09' W 015°25'0 0.0
2018-Apr-24 09:57N 28°09' W 015°25'0 0.0
2018-Apr-24 09:27N 28°09' W 015°25'0 0.0
2018-Apr-24 08:57N 28°09' W 015°25'0 0.0
2018-Apr-24 08:27N 28°09' W 015°25'0 0.0
2018-Apr-24 07:54N 28°09' W 015°25'0 0.0
2018-Apr-24 07:27N 28°09' W 015°25'0 0.0
2018-Apr-24 06:57N 28°09' W 015°25'0 0.0
2018-Apr-24 06:09N 28°09' W 015°25'0 0.0
2018-Apr-24 05:57N 28°09' W 015°25'0 0.0
2018-Apr-24 05:27N 28°09' W 015°25'0 0.0
2018-Apr-24 04:57N 28°09' W 015°25'0 0.0
2018-Apr-24 04:27N 28°09' W 015°25'0 0.0
2018-Apr-24 03:57N 28°09' W 015°25'0 0.0
2018-Apr-24 03:30N 28°09' W 015°25'0 0.0
2018-Apr-24 03:00N 28°09' W 015°25'0 0.0
2018-Apr-24 02:27N 28°09' W 015°25'0 0.0
2018-Apr-24 02:00N 28°09' W 015°25'0 0.0
2018-Apr-24 01:15N 28°09' W 015°25'0 0.0
2018-Apr-24 00:57N 28°09' W 015°25'0 0.0
2018-Apr-24 00:27N 28°09' W 015°25'0 0.0
2018-Apr-24 00:00N 28°09' W 015°25'0 0.0
2018-Apr-23 23:15N 28°09' W 015°25'0 0.0
2018-Apr-23 22:57N 28°09' W 015°25'0 0.0
2018-Apr-23 22:27N 28°09' W 015°25'0 0.1
2018-Apr-23 21:48N 28°09' W 015°25'1 3.5
2018-Apr-23 21:30N 28°08' W 015°25'2 3.3
2018-Apr-23 21:00N 28°09' W 015°24'0 0.7
2018-Apr-23 20:30N 28°09' W 015°24'0 0.0
2018-Apr-23 20:00N 28°09' W 015°24'0 0.0
2018-Apr-23 19:30N 28°09' W 015°24'0 0.0
2018-Apr-23 19:00N 28°09' W 015°24'0 0.0
2018-Apr-23 18:30N 28°09' W 015°24'0 0.0
2018-Apr-23 18:00N 28°09' W 015°24'0 0.0
2018-Apr-23 17:29N 28°09' W 015°24'0 0.0
2018-Apr-23 16:59N 28°09' W 015°24'0 0.0
2018-Apr-23 16:29N 28°09' W 015°24'0 0.0
2018-Apr-23 16:01N 28°09' W 015°24'0 0.0
2018-Apr-23 15:30N 28°09' W 015°24'1 2.5
2018-Apr-23 15:01N 28°09' W 015°23'3 6.1
2018-Apr-23 14:31N 28°11' W 015°21'713.5
2018-Apr-23 14:01N 28°18' W 015°19'713.7
2018-Apr-23 13:30N 28°24' W 015°16'713.6
2018-Apr-23 13:00N 28°31' W 015°13'713.5
2018-Apr-23 12:30N 28°37' W 015°11'67012.9
2018-Apr-21 08:32N 39°06' W 010°35'012.8
2018-Apr-21 08:29N 39°07' W 010°34'812.8
2018-Apr-21 07:51N 39°14' W 010°30'  
Track history (hours):
 
Tides and Currents Weather Stations Pressure Air Temp Water Temp Dewpoint Dewpoint Depression Visibility Wind Speed Wind Dir Waves Ship Positions

Sierra Lara

Last reported at 2018-Apr-24 17:40 UTC. Time now 2018-Apr-26 11:19 UTC.
Position N 27°39' W 015°18'.

; draft 5.2 m.

Type: Cargo ship. MMSI: 311000682.

Date/timePositionNaut miles runAvg speedWind from/ knotsBaromVisibWave heightAir tempDewpointWater temp
2018-Apr-24 17:40N 27°39' W 015°18'213.3
2018-Apr-24 17:30N 27°41' W 015°17'713.0
2018-Apr-24 17:00N 27°48' W 015°15'613.2
2018-Apr-24 16:30N 27°54' W 015°15'612.3
2018-Apr-24 16:00N 28°00' W 015°17'612.8
2018-Apr-24 15:30N 28°05' W 015°21'5 9.0
2018-Apr-24 15:00N 28°08' W 015°25'1 0.5
2018-Apr-24 13:43N 28°09' W 015°25'0 0.0
2018-Apr-24 13:28N 28°09' W 015°25'0 0.0
2018-Apr-24 12:46N 28°09' W 015°25'0 0.0
2018-Apr-24 11:34N 28°09' W 015°25'0 0.2
2018-Apr-24 11:31N 28°09' W 015°25'0 0.0
2018-Apr-24 10:46N 28°09' W 015°25'0 0.0
2018-Apr-24 10:27N 28°09' W 015°25'0 0.0
2018-Apr-24 09:57N 28°09' W 015°25'0 0.0
2018-Apr-24 09:27N 28°09' W 015°25'0 0.0
2018-Apr-24 08:57N 28°09' W 015°25'0 0.0
2018-Apr-24 08:27N 28°09' W 015°25'0 0.0
2018-Apr-24 07:54N 28°09' W 015°25'0 0.0
2018-Apr-24 07:27N 28°09' W 015°25'0 0.0
2018-Apr-24 06:57N 28°09' W 015°25'0 0.0
2018-Apr-24 06:09N 28°09' W 015°25'0 0.0
2018-Apr-24 05:57N 28°09' W 015°25'0 0.0
2018-Apr-24 05:27N 28°09' W 015°25'0 0.0
2018-Apr-24 04:57N 28°09' W 015°25'0 0.0
2018-Apr-24 04:27N 28°09' W 015°25'0 0.0
2018-Apr-24 03:57N 28°09' W 015°25'0 0.0
2018-Apr-24 03:30N 28°09' W 015°25'0 0.0
2018-Apr-24 03:00N 28°09' W 015°25'0 0.0
2018-Apr-24 02:27N 28°09' W 015°25'0 0.0
2018-Apr-24 02:00N 28°09' W 015°25'0 0.0
2018-Apr-24 01:15N 28°09' W 015°25'0 0.0
2018-Apr-24 00:57N 28°09' W 015°25'0 0.0
2018-Apr-24 00:27N 28°09' W 015°25'0 0.0
2018-Apr-24 00:00N 28°09' W 015°25'0 0.0
2018-Apr-23 23:15N 28°09' W 015°25'0 0.0
2018-Apr-23 22:57N 28°09' W 015°25'0 0.0
2018-Apr-23 22:27N 28°09' W 015°25'0 0.1
2018-Apr-23 21:48N 28°09' W 015°25'1 3.5
2018-Apr-23 21:30N 28°08' W 015°25'2 3.3
2018-Apr-23 21:00N 28°09' W 015°24'0 0.7
2018-Apr-23 20:30N 28°09' W 015°24'0 0.0
2018-Apr-23 20:00N 28°09' W 015°24'0 0.0
2018-Apr-23 19:30N 28°09' W 015°24'0 0.0
2018-Apr-23 19:00N 28°09' W 015°24'0 0.0
2018-Apr-23 18:30N 28°09' W 015°24'0 0.0
2018-Apr-23 18:00N 28°09' W 015°24'0 0.0
2018-Apr-23 17:29N 28°09' W 015°24'0 0.0
2018-Apr-23 16:59N 28°09' W 015°24'0 0.0
2018-Apr-23 16:29N 28°09' W 015°24'0 0.0
2018-Apr-23 16:01N 28°09' W 015°24'0 0.0
2018-Apr-23 15:30N 28°09' W 015°24'1 2.5
2018-Apr-23 15:01N 28°09' W 015°23'3 6.1
2018-Apr-23 14:31N 28°11' W 015°21'713.5
2018-Apr-23 14:01N 28°18' W 015°19'713.7
2018-Apr-23 13:30N 28°24' W 015°16'713.6
2018-Apr-23 13:00N 28°31' W 015°13'713.5
2018-Apr-23 12:30N 28°37' W 015°11'67012.9
2018-Apr-21 08:32N 39°06' W 010°35'012.8
2018-Apr-21 08:29N 39°07' W 010°34'812.8
2018-Apr-21 07:51N 39°14' W 010°30'  

Dump ship's entire track history